Terminal Aerodrome Forecast
Issued by NWS Shreveport, LA

Home | Current Version | Previous Version | Text Only | Print | Product List | Glossary On
Versions: 1 2 3 4 5 6 7 8 9 10 11 12 13 14 15 16
520
FTUS44 KSHV 271152
TAFTXK
TAF
KTXK 271152Z 2712/2812 17013G22KT P6SM VCSH SCT035 OVC120
      TEMPO 2712/2716 5SM RA BR BKN030 OVC100
     FM271600 17013G22KT 3SM TSRA BR BKN035 OVC080CB
      TEMPO 2720/2724 17015G25KT 2SM TSRA BR OVC010CB
     FM280000 18012KT P6SM VCTS OVC035CB
     FM280500 17008KT P6SM OVC015=

USA.gov is the U.S. government's official web portal to all federal, state and local government web resources and services.